Board Tree, Kentucky
Current Conditions -  °F | °C
As of 2:55 AM on Tuesday 21 Oct 2014 (Local Time) from KPBX Reporting Station
Overcast Overcast  
Wind Chill: 53°   Ceiling: 5000
Heat Index: 53°   Visibility: 10mi
Dew Point: 47°   Wind: 6mph
Humidity: 80%   Direction: 270°W
Pressure: 29.96"   Gusts: NA
Location:  37.5459°N, 82.1376°W
Report Text: KPBX 210655Z AUTO 27005KT 10SM BKN050 BKN065 OVC095 12/09 A2996 RMK AO2 T01190085
Loading
Personal Weather Stations






























Interactive Weather Map
Tropical Storm Tracking
New forecast layout! Learn more

10-Day Weather Forecast

Advertisements
Track Severe Weather on mobile